Flight Track Log - Related Links

Times and Time Zones

All times are in EDT time to prevent confusion due to time zone crossing. See the OPT429 flight status page for this flight to view local times or setup timezone preferences in your user account.

Time Position Orientation Groundspeed Altitude Reporting Facility
EDT Latitude Longitude Course Direction KTS MPH feet Rate Location/Type
Tue 09:01:03 34.2669 -85.1875 195° South 449 517 4,900  Level Atlanta Center
Tue 09:02:03 34.2000 -85.2092 195° South 348 400 7,600 6,033 Climbing Atlanta Center
Tue 09:04:03 34.0700 -85.2525 195° South 265 305 23,000 5,133 Climbing Atlanta Center
Tue 09:05:03 33.9925 -85.2842 199° South 276 318 23,000  Level Atlanta Center
Tue 09:06:03 33.9086 -85.3128 196° South 294 338 23,000  Level Atlanta Center
Tue 09:07:03 33.8269 -85.3417 196° South 312 359 23,000  Level Atlanta Center
Tue 09:08:03 33.7411 -85.3703 195° South 312 359 23,000  Level Atlanta Center
Tue 09:09:03 33.6553 -85.3989 196° South 318 366 23,000  Level Atlanta Center
Tue 09:10:03 33.5531 -85.3972 179° South 332 382 23,000  Level Atlanta Center
Tue 09:11:03 33.4514 -85.3358 153° Southeast 364 419 23,000  Level Atlanta Center
Tue 09:12:03 33.3497 -85.2747 153° Southeast 389 448 23,000  Level Atlanta Center
Tue 09:13:03 33.2522 -85.2139 152° Southeast 394 453 23,000  Level Atlanta Center
Tue 09:14:03 33.1525 -85.1578 155° Southeast 399 459 23,000  Level Atlanta Center
Tue 09:15:03 33.0550 -85.0994 153° Southeast 394 453 23,000  Level Atlanta Center
Tue 09:16:03 32.9594 -85.0439 154° Southeast 394 453 23,000  Level Atlanta Center
Tue 09:17:03 32.8553 -85.0206 169° South 388 447 23,000  Level Atlanta Center
Tue 09:18:03 32.7489 -84.9972 170° South 382 440 23,000  Level Atlanta Center
Tue 09:19:03 32.6383 -84.9836 174° South 392 451 23,000  Level Atlanta Center
Tue 09:20:03 32.5383 -84.9725 175° South 392 451 23,000  Level Atlanta Center
Tue 09:21:03 32.4175 -84.9567 174° South 398 458 23,000  Level Atlanta Center
Tue 09:22:03 32.3028 -84.9456 175° South 408 470 23,000  Level Atlanta Center
Tue 09:23:03 32.2025 -84.9372 176° South 408 470 23,000  Level Atlanta Center
Tue 09:23:57 32.0897 -84.9231 174° South 407 468 23,000  Level Jacksonville Center
Tue 09:24:57 31.9903 -84.8792 159° South 407 468 23,000  Level Jacksonville Center
Tue 09:25:57 31.8894 -84.7864 142° Southeast 407 468 23,000 -100 Level Jacksonville Center
Tue 09:26:57 31.7967 -84.7039 143° Southeast 412 474 22,800 -1,150 Descending Jacksonville Center
Tue 09:27:57 31.7058 -84.6167 141° Southeast 423 487 20,700 -2,050 Descending Jacksonville Center
Tue 09:28:57 31.6153 -84.5319 141° Southeast 423 487 18,700 -2,100 Descending Jacksonville Center
Tue 09:29:57 31.5286 -84.4525 142° Southeast 416 479 16,500 -2,300 Descending Jacksonville Center
Tue 09:30:57 31.4458 -84.3781 142° Southeast 405 466 14,100 -2,548 Descending Jacksonville Center
Tue 09:31:10 31.4294 -84.3631 142° Southeast 359 413 13,400 -2,939 Descending Jacksonville Center
Tue 09:31:46 31.3858 -84.3236 142° Southeast 343 395 11,700 -2,809 Descending Jacksonville Center
Tue 09:31:57 31.3694 -84.3086 142° Southeast 374 430 11,200 -1,869 Descending Jacksonville Center
Tue 09:32:47 31.3117 -84.2544 141° Southeast 329 379 9,800 -1,600 Descending Jacksonville Center
Tue 09:32:57 31.3011 -84.2444 141° Southeast 342 394 9,600 -2,057 Descending Jacksonville Center
Tue 09:33:57 31.2372 -84.1853 142° Southeast 314 361 7,400 -2,250 Descending Jacksonville Center
Tue 09:34:57 31.1731 -84.1286 143° Southeast 299 344 5,100 -2,304 Descending Jacksonville Center
Tue 09:35:49 31.1464 -84.0578 114° Southeast 286 329 3,100 -1,339 Descending Jacksonville Center
Tue 09:36:49 31.1139 -83.9797 116° Southeast 226 260 2,600 -248 Descending Jacksonville Center
Tue 09:37:50 31.0997 -83.9164 105° East 204 235 2,600  Level Jacksonville Center
Tue 09:38:57 31.0856 -83.8411 102° East 204 235 2,600  Level Jacksonville Center
Tue 09:39:57 31.0736 -83.7756 102° East 205 236 2,600  Level Jacksonville Center
Tue 09:40:57 31.0467 -83.7317 126° Southeast 190 219 2,600  Level Jacksonville Center
Tue 09:41:59 31.0153 -83.7653 223° Southwest 112 129 2,600 -98 Level Jacksonville Center
Tue 09:42:59 30.9919 -83.7942 227° Southwest 118 136 2,400 -417 Descending Jacksonville Center
Tue 09:43:54 30.9689 -83.8181 222° Southwest 121 139 1,800 -606 Descending Jacksonville Center
Tue 09:44:48 30.9458 -83.8397 219° Southwest 113 130 1,300 -556 Descending Jacksonville Center
Tue 09:46:00 30.9000 -83.8667 207° Southwest  Level FlightAware Approximate
Tue 09:53:00 30.9018 -83.8811 278° West  Level Estimated
Tue 09:54:00 30.9018 -83.8811 North  Level Estimated
Tue 09:55:00 30.9018 -83.8811 North  Level Estimated

Login

Don't have an account? Register now (free) for customized features, flight alerts, and more!